createdAt,value
2022-09-18T00:01:27.490Z,11.58
2022-09-18T00:03:57.604Z,11.45
2022-09-18T00:06:26.755Z,11.48
2022-09-18T00:08:55.517Z,11.55
2022-09-18T00:11:25.544Z,11.53
2022-09-18T00:13:54.840Z,11.52
2022-09-18T00:16:24.098Z,11.47
2022-09-18T00:18:51.409Z,11.39
2022-09-18T00:21:21.292Z,11.39
2022-09-18T00:23:48.762Z,11.42
2022-09-18T00:26:18.417Z,11.50
2022-09-18T00:28:46.302Z,11.52
2022-09-18T00:31:29.804Z,11.56
2022-09-18T00:33:59.208Z,11.65
2022-09-18T00:36:26.908Z,11.56
2022-09-18T00:38:56.923Z,11.56
2022-09-18T00:41:26.930Z,11.67
2022-09-18T00:44:33.385Z,11.75
2022-09-18T00:47:17.626Z,11.71
2022-09-18T00:49:50.190Z,11.71
2022-09-18T00:52:20.474Z,11.57
2022-09-18T00:54:57.107Z,11.53
2022-09-18T00:57:32.923Z,11.64
2022-09-18T01:00:02.332Z,11.57
2022-09-18T01:02:29.147Z,11.67
2022-09-18T01:04:56.487Z,11.71
2022-09-18T01:07:45.345Z,11.82
2022-09-18T01:10:18.517Z,11.98
2022-09-18T01:13:04.573Z,12.01
2022-09-18T01:16:01.740Z,12.27
2022-09-18T01:18:42.883Z,12.31
2022-09-18T01:21:21.279Z,12.38
2022-09-18T01:24:25.864Z,12.29
2022-09-18T01:26:55.908Z,12.28
2022-09-18T01:29:36.184Z,12.49
2022-09-18T01:32:29.961Z,12.51
2022-09-18T01:35:06.308Z,12.34
2022-09-18T01:37:53.616Z,12.40
2022-09-18T01:40:34.386Z,12.54
2022-09-18T01:43:06.422Z,12.45
2022-09-18T01:45:37.969Z,12.38
2022-09-18T01:48:08.525Z,12.42
2022-09-18T01:50:44.365Z,12.50
2022-09-18T01:53:13.888Z,12.27
2022-09-18T01:55:51.407Z,12.42
2022-09-18T01:58:24.980Z,12.43
2022-09-18T02:00:56.995Z,12.47
2022-09-18T02:03:33.545Z,12.51
2022-09-18T02:06:16.837Z,12.42
2022-09-18T02:08:49.671Z,12.50
2022-09-18T02:11:21.784Z,12.47
2022-09-18T02:13:55.066Z,12.44
2022-09-18T02:17:02.592Z,12.55
2022-09-18T02:19:38.963Z,12.33
2022-09-18T02:22:11.358Z,12.30
2022-09-18T02:24:39.024Z,12.12
2022-09-18T02:27:08.756Z,11.87
2022-09-18T02:29:40.573Z,11.77
2022-09-18T02:32:08.797Z,11.63
2022-09-18T02:34:35.824Z,11.62
2022-09-18T02:37:06.774Z,11.72
2022-09-18T02:39:52.575Z,11.78
2022-09-18T02:42:41.531Z,11.67
2022-09-18T02:45:44.398Z,11.62
2022-09-18T02:48:29.236Z,11.40
2022-09-18T02:51:29.648Z,11.27
2022-09-18T02:54:04.687Z,11.23
2022-09-18T02:57:21.245Z,11.23
2022-09-18T02:59:53.952Z,11.21
2022-09-18T03:02:25.259Z,11.19
2022-09-18T03:04:53.011Z,11.34
2022-09-18T03:07:39.343Z,11.24
2022-09-18T03:10:07.865Z,11.27
2022-09-18T03:12:34.988Z,11.28
2022-09-18T03:15:03.143Z,11.25
2022-09-18T03:17:29.842Z,11.16
2022-09-18T03:19:56.844Z,11.16
2022-09-18T03:22:23.928Z,11.23
2022-09-18T03:24:50.922Z,11.21
2022-09-18T03:27:18.432Z,11.24
2022-09-18T03:29:46.332Z,11.22
2022-09-18T03:32:13.170Z,11.09
2022-09-18T03:34:45.157Z,11.21
2022-09-18T03:37:12.139Z,11.21
2022-09-18T03:39:40.339Z,11.19
2022-09-18T03:42:10.358Z,11.26
2022-09-18T03:44:37.431Z,11.24
2022-09-18T03:47:11.809Z,11.16
2022-09-18T03:49:38.906Z,11.25
2022-09-18T03:52:05.668Z,11.18
2022-09-18T03:54:37.996Z,11.28
2022-09-18T03:57:23.063Z,11.28
2022-09-18T04:00:10.246Z,11.28
2022-09-18T04:02:44.094Z,11.26
2022-09-18T04:05:49.866Z,11.24
2022-09-18T04:08:28.729Z,11.26
2022-09-18T04:11:15.914Z,11.21
2022-09-18T04:13:42.799Z,11.21
2022-09-18T04:16:12.948Z,11.21
2022-09-18T04:18:39.882Z,11.24
2022-09-18T04:21:08.343Z,11.24
2022-09-18T04:23:35.692Z,11.21
2022-09-18T04:26:09.063Z,11.12
2022-09-18T04:28:40.773Z,11.17
2022-09-18T04:31:09.591Z,11.19
2022-09-18T04:33:37.041Z,11.12
2022-09-18T04:36:07.224Z,11.01
2022-09-18T04:38:35.491Z,10.92
2022-09-18T04:41:02.307Z,11.04
2022-09-18T04:43:30.138Z,10.97
2022-09-18T04:45:57.133Z,10.95
2022-09-18T04:48:24.393Z,10.85
2022-09-18T04:50:52.288Z,10.81
2022-09-18T04:53:20.097Z,10.76
2022-09-18T04:55:48.278Z,10.84
2022-09-18T04:58:17.811Z,10.84
2022-09-18T05:00:50.949Z,10.76
2022-09-18T05:03:19.558Z,10.80
2022-09-18T05:05:48.493Z,10.81
2022-09-18T05:08:17.483Z,10.91
2022-09-18T05:10:44.572Z,10.92
2022-09-18T05:13:12.283Z,10.87
2022-09-18T05:15:45.621Z,10.88
2022-09-18T05:18:13.046Z,10.95
2022-09-18T05:20:40.004Z,10.92
2022-09-18T05:23:08.838Z,10.82
2022-09-18T05:25:37.050Z,10.89
2022-09-18T05:28:04.436Z,10.86
2022-09-18T05:30:43.255Z,10.90
2022-09-18T05:33:11.679Z,10.75
2022-09-18T05:35:40.387Z,10.77
2022-09-18T05:38:07.427Z,10.73
2022-09-18T05:40:37.493Z,10.73
2022-09-18T05:43:05.911Z,10.77
2022-09-18T05:45:35.124Z,10.73
2022-09-18T05:48:07.756Z,10.79
2022-09-18T05:50:38.549Z,10.83
2022-09-18T05:53:08.569Z,10.85
2022-09-18T05:56:01.675Z,10.76
2022-09-18T05:58:30.926Z,10.80
2022-09-18T06:00:59.387Z,10.74
2022-09-18T06:03:35.360Z,10.81
2022-09-18T06:06:02.427Z,10.87
2022-09-18T06:08:29.173Z,10.91
2022-09-18T06:11:00.295Z,10.76
2022-09-18T06:13:28.683Z,10.88
2022-09-18T06:15:57.684Z,10.87
2022-09-18T06:18:33.263Z,10.98
2022-09-18T06:21:02.025Z,11.01
2022-09-18T06:23:30.334Z,10.96
2022-09-18T06:26:06.000Z,11.03
2022-09-18T06:28:34.841Z,11.07
2022-09-18T06:31:05.179Z,11.07
2022-09-18T06:33:51.736Z,11.16
2022-09-18T06:36:19.091Z,11.22
2022-09-18T06:39:08.558Z,11.05
2022-09-18T06:41:35.628Z,10.75
2022-09-18T06:44:05.001Z,10.67
2022-09-18T06:46:47.409Z,10.79
2022-09-18T06:49:26.252Z,10.77
2022-09-18T06:51:53.228Z,10.77
2022-09-18T06:54:19.958Z,10.69
2022-09-18T06:56:49.518Z,10.82
2022-09-18T06:59:18.122Z,10.83
2022-09-18T07:01:48.520Z,10.75
2022-09-18T07:04:26.013Z,10.86
2022-09-18T07:06:52.908Z,10.96
2022-09-18T07:09:19.854Z,10.87
2022-09-18T07:12:01.734Z,10.99
2022-09-18T07:14:48.728Z,11.15
2022-09-18T07:17:19.132Z,11.06
2022-09-18T07:19:49.938Z,10.91
2022-09-18T07:22:20.337Z,10.91
2022-09-18T07:24:47.882Z,11.09
2022-09-18T07:27:14.761Z,11.36
2022-09-18T07:29:43.168Z,11.53
2022-09-18T07:32:13.458Z,11.50
2022-09-18T07:34:43.705Z,11.67
2022-09-18T07:37:13.247Z,11.53
2022-09-18T07:39:44.118Z,11.70
2022-09-18T07:42:29.203Z,12.37
2022-09-18T07:44:56.539Z,12.85
2022-09-18T07:47:25.381Z,12.82
2022-09-18T07:49:53.567Z,13.22
2022-09-18T07:52:21.512Z,12.70
2022-09-18T07:54:51.885Z,12.64
2022-09-18T07:57:29.218Z,12.59
2022-09-18T08:00:19.264Z,12.62
2022-09-18T08:02:50.277Z,12.84
2022-09-18T08:05:38.725Z,12.85
2022-09-18T08:08:07.617Z,13.23
2022-09-18T08:10:52.798Z,13.24
2022-09-18T08:13:55.188Z,13.12
2022-09-18T08:16:54.734Z,13.42
2022-09-18T08:19:39.307Z,14.50
2022-09-18T08:22:14.682Z,14.27
2022-09-18T08:24:47.557Z,14.29
2022-09-18T08:27:14.924Z,14.14
2022-09-18T08:29:42.399Z,13.91
2022-09-18T08:32:10.736Z,13.52
2022-09-18T08:34:38.107Z,13.12
2022-09-18T08:37:05.783Z,12.96
2022-09-18T08:39:50.970Z,12.72
2022-09-18T08:43:14.819Z,12.44
2022-09-18T08:46:05.260Z,12.97
2022-09-18T08:48:40.973Z,13.37
2022-09-18T08:51:50.726Z,13.60
2022-09-18T08:54:59.693Z,13.21
2022-09-18T08:57:46.640Z,13.25
2022-09-18T09:00:41.527Z,13.34
2022-09-18T09:03:31.247Z,13.12
2022-09-18T09:06:01.810Z,13.38
2022-09-18T09:09:15.851Z,13.59
2022-09-18T09:11:58.948Z,13.30
2022-09-18T09:14:57.157Z,13.25
2022-09-18T09:17:48.286Z,13.60
2022-09-18T09:20:50.623Z,13.59
2022-09-18T09:23:22.960Z,13.83
2022-09-18T09:26:12.631Z,13.75
2022-09-18T09:29:33.790Z,13.92
2022-09-18T09:32:54.363Z,13.64
2022-09-18T09:35:55.825Z,13.65
2022-09-18T09:38:48.850Z,13.69
2022-09-18T09:41:33.136Z,13.55
2022-09-18T09:44:21.868Z,13.59
2022-09-18T09:47:19.061Z,13.66
2022-09-18T09:50:23.466Z,13.67
2022-09-18T09:52:55.976Z,14.21
2022-09-18T09:55:52.868Z,14.23
2022-09-18T09:59:08.159Z,13.87
2022-09-18T10:01:57.287Z,13.86
2022-09-18T10:04:44.952Z,13.78
2022-09-18T10:07:26.738Z,13.82
2022-09-18T10:10:17.780Z,14.03
2022-09-18T10:12:55.141Z,14.24
2022-09-18T10:16:26.096Z,14.44
2022-09-18T10:18:54.615Z,14.42
2022-09-18T10:21:27.264Z,14.52
2022-09-18T10:24:25.908Z,14.48
2022-09-18T10:27:07.643Z,14.31
2022-09-18T10:29:37.551Z,14.23
2022-09-18T10:32:08.152Z,14.14
2022-09-18T10:34:42.412Z,14.60
2022-09-18T10:37:29.473Z,14.65
2022-09-18T10:40:30.015Z,14.31
2022-09-18T10:43:00.090Z,14.34
2022-09-18T10:45:33.980Z,14.54
2022-09-18T10:48:25.247Z,14.74
2022-09-18T10:50:53.698Z,14.73
2022-09-18T10:53:30.266Z,14.87
2022-09-18T10:56:15.280Z,14.93
2022-09-18T10:58:43.121Z,14.94
2022-09-18T11:01:11.214Z,15.00
2022-09-18T11:03:41.859Z,15.05
2022-09-18T11:06:25.601Z,15.08
2022-09-18T11:09:01.193Z,15.03
2022-09-18T11:11:30.500Z,15.39
2022-09-18T11:14:04.961Z,15.28
2022-09-18T11:16:52.996Z,15.13
2022-09-18T11:19:33.159Z,15.15
2022-09-18T11:22:07.685Z,14.99
2022-09-18T11:24:47.316Z,15.20
2022-09-18T11:27:22.881Z,15.57
2022-09-18T11:30:14.172Z,15.52
2022-09-18T11:32:46.918Z,15.56
2022-09-18T11:35:17.354Z,15.56
2022-09-18T11:37:49.052Z,15.73
2022-09-18T11:40:28.378Z,16.01
2022-09-18T11:42:57.006Z,15.72
2022-09-18T11:45:46.062Z,15.95
2022-09-18T11:48:36.889Z,16.47
2022-09-18T11:51:11.366Z,16.89
2022-09-18T11:53:44.516Z,16.96
2022-09-18T11:56:36.066Z,16.57
2022-09-18T11:59:19.221Z,16.59
2022-09-18T12:01:51.588Z,15.92
2022-09-18T12:04:26.977Z,15.72
2022-09-18T12:07:11.917Z,15.81
2022-09-18T12:10:31.477Z,15.92
2022-09-18T12:13:16.772Z,16.07
2022-09-18T12:15:58.011Z,16.16
2022-09-18T12:18:31.384Z,16.36
2022-09-18T12:21:05.354Z,16.25
2022-09-18T12:23:32.503Z,16.45
2022-09-18T12:26:22.571Z,16.39
2022-09-18T12:29:10.402Z,16.33
2022-09-18T12:32:00.607Z,16.23
2022-09-18T12:34:36.199Z,16.24
2022-09-18T12:37:12.058Z,16.69
2022-09-18T12:39:48.719Z,16.92
2022-09-18T12:42:27.792Z,16.58
2022-09-18T12:45:12.801Z,16.42
2022-09-18T12:47:52.388Z,16.60
2022-09-18T12:50:19.147Z,16.37
2022-09-18T12:53:09.917Z,16.51
2022-09-18T12:55:42.891Z,16.41
2022-09-18T12:58:34.313Z,16.20
2022-09-18T13:01:08.764Z,16.06
2022-09-18T13:03:39.617Z,16.08
2022-09-18T13:06:11.327Z,16.18
2022-09-18T13:08:44.879Z,15.78
2022-09-18T13:11:51.039Z,16.09
2022-09-18T13:14:23.757Z,16.47
2022-09-18T13:16:59.912Z,16.19
2022-09-18T13:19:38.268Z,16.12
2022-09-18T13:22:10.367Z,16.11
2022-09-18T13:24:39.655Z,16.14
2022-09-18T13:27:12.822Z,16.26
2022-09-18T13:29:51.554Z,16.36
2022-09-18T13:32:37.907Z,16.16
2022-09-18T13:35:14.051Z,16.25
2022-09-18T13:37:42.925Z,16.33
2022-09-18T13:40:26.848Z,16.35
2022-09-18T13:42:54.144Z,16.33
2022-09-18T13:45:26.405Z,16.31
2022-09-18T13:48:02.459Z,16.11
2022-09-18T13:50:30.378Z,16.06
2022-09-18T13:52:59.906Z,15.89
2022-09-18T13:55:27.324Z,15.46
2022-09-18T13:58:31.512Z,15.05
2022-09-18T14:01:00.737Z,14.35
2022-09-18T14:03:27.992Z,14.24
2022-09-18T14:05:55.288Z,14.39
2022-09-18T14:08:22.659Z,14.38
2022-09-18T14:11:13.674Z,13.81
2022-09-18T14:13:52.458Z,14.02
2022-09-18T14:16:19.362Z,14.02
2022-09-18T14:18:49.436Z,14.27
2022-09-18T14:21:18.934Z,14.40
2022-09-18T14:23:46.161Z,14.31
2022-09-18T14:26:32.476Z,14.09
2022-09-18T14:29:19.799Z,14.22
2022-09-18T14:31:55.803Z,14.42
2022-09-18T14:34:30.252Z,14.38
2022-09-18T14:37:00.771Z,14.33
2022-09-18T14:39:37.507Z,14.81
2022-09-18T14:42:13.862Z,15.02
2022-09-18T14:44:47.510Z,15.37
2022-09-18T14:47:22.109Z,15.76
2022-09-18T14:49:49.681Z,15.63
2022-09-18T14:52:23.934Z,15.51
2022-09-18T14:54:52.723Z,15.70
2022-09-18T14:57:33.061Z,15.79
2022-09-18T15:00:01.841Z,15.79
2022-09-18T15:02:31.631Z,15.69
2022-09-18T15:05:01.303Z,15.85
2022-09-18T15:07:28.242Z,15.72
2022-09-18T15:09:59.858Z,15.75
2022-09-18T15:12:30.805Z,15.76
2022-09-18T15:14:59.184Z,15.85
2022-09-18T15:17:28.492Z,15.67
2022-09-18T15:20:09.484Z,15.69
2022-09-18T15:22:39.080Z,14.75
2022-09-18T15:25:12.844Z,12.97
2022-09-18T15:27:41.406Z,11.74
2022-09-18T15:30:15.952Z,10.79
2022-09-18T15:33:03.331Z,10.49
2022-09-18T15:35:36.649Z,10.26
2022-09-18T15:38:07.238Z,10.03
2022-09-18T15:40:37.380Z,9.95
2022-09-18T15:43:06.893Z,9.86
2022-09-18T15:45:35.597Z,9.80
2022-09-18T15:48:34.430Z,9.79
2022-09-18T15:51:08.539Z,9.81
2022-09-18T15:53:36.827Z,10.07
2022-09-18T15:56:07.278Z,10.25
2022-09-18T15:58:39.254Z,10.42
2022-09-18T16:01:14.105Z,10.62
2022-09-18T16:03:41.396Z,10.81
2022-09-18T16:06:20.431Z,11.00
2022-09-18T16:08:54.076Z,10.92
2022-09-18T16:11:45.651Z,10.90
2022-09-18T16:14:44.323Z,11.02
2022-09-18T16:17:29.449Z,11.31
2022-09-18T16:19:57.666Z,11.32
2022-09-18T16:22:30.453Z,11.44
2022-09-18T16:24:58.249Z,11.66
2022-09-18T16:27:26.400Z,11.81
2022-09-18T16:29:53.307Z,11.93
2022-09-18T16:32:21.802Z,12.12
2022-09-18T16:34:48.595Z,12.11
2022-09-18T16:37:17.494Z,12.09
2022-09-18T16:39:45.286Z,12.05
2022-09-18T16:42:18.537Z,11.79
2022-09-18T16:44:46.114Z,11.88
2022-09-18T16:47:16.051Z,11.61
2022-09-18T16:49:45.934Z,11.42
2022-09-18T16:52:14.017Z,11.19
2022-09-18T16:54:43.974Z,11.51
2022-09-18T16:57:19.887Z,11.43
2022-09-18T16:59:48.299Z,11.27
2022-09-18T17:02:18.248Z,11.20
2022-09-18T17:04:44.978Z,11.20
2022-09-18T17:07:11.979Z,11.16
2022-09-18T17:09:38.953Z,11.07
2022-09-18T17:12:05.867Z,11.21
2022-09-18T17:14:32.733Z,11.34
2022-09-18T17:16:59.607Z,11.37
2022-09-18T17:19:26.545Z,11.41
2022-09-18T17:21:53.627Z,11.45
2022-09-18T17:24:25.618Z,11.29
2022-09-18T17:26:57.601Z,11.32
2022-09-18T17:29:24.363Z,11.35
2022-09-18T17:31:52.431Z,11.46
2022-09-18T17:34:22.044Z,11.49
2022-09-18T17:36:51.770Z,11.49
2022-09-18T17:39:18.565Z,11.48
2022-09-18T17:41:45.981Z,11.53
2022-09-18T17:44:12.725Z,11.36
2022-09-18T17:46:41.779Z,11.27
2022-09-18T17:49:08.614Z,11.27
2022-09-18T17:51:35.379Z,11.20
2022-09-18T17:54:04.361Z,11.14
2022-09-18T17:56:33.162Z,11.05
2022-09-18T17:59:02.894Z,11.04
2022-09-18T18:01:30.246Z,11.07
2022-09-18T18:03:57.522Z,10.98
2022-09-18T18:06:26.914Z,11.03
2022-09-18T18:08:53.769Z,11.01
2022-09-18T18:11:23.567Z,10.89
2022-09-18T18:13:53.758Z,10.90
2022-09-18T18:16:27.490Z,10.71
2022-09-18T18:18:59.904Z,10.77
2022-09-18T18:21:27.929Z,10.83
2022-09-18T18:24:01.871Z,10.76
2022-09-18T18:26:28.598Z,10.74
2022-09-18T18:28:55.845Z,10.67
2022-09-18T18:31:25.641Z,10.57
2022-09-18T18:33:55.896Z,10.77
2022-09-18T18:36:27.805Z,10.68
2022-09-18T18:38:58.028Z,10.66
2022-09-18T18:41:26.826Z,10.60
2022-09-18T18:43:58.299Z,10.65
2022-09-18T18:46:27.682Z,10.77
2022-09-18T18:49:06.756Z,10.68
2022-09-18T18:51:36.440Z,10.74
2022-09-18T18:54:04.712Z,10.67
2022-09-18T18:56:35.491Z,10.49
2022-09-18T18:59:04.411Z,10.36
2022-09-18T19:01:32.303Z,10.36
2022-09-18T19:04:08.675Z,10.28
2022-09-18T19:06:40.751Z,10.31
2022-09-18T19:09:11.126Z,10.37
2022-09-18T19:11:45.437Z,10.30
2022-09-18T19:14:14.407Z,10.27
2022-09-18T19:16:41.093Z,10.35
2022-09-18T19:19:09.540Z,10.29
2022-09-18T19:21:39.789Z,10.31
2022-09-18T19:24:08.146Z,10.26
2022-09-18T19:26:36.356Z,10.24
2022-09-18T19:29:07.923Z,10.15
2022-09-18T19:31:36.892Z,10.23
2022-09-18T19:34:04.999Z,10.12
2022-09-18T19:36:32.600Z,10.10
2022-09-18T19:39:01.911Z,10.28
2022-09-18T19:41:47.831Z,10.16
2022-09-18T19:44:29.867Z,10.32
2022-09-18T19:47:02.619Z,10.21
2022-09-18T19:49:33.569Z,10.35
2022-09-18T19:52:00.862Z,10.45
2022-09-18T19:54:27.712Z,10.48
2022-09-18T19:56:54.495Z,10.49
2022-09-18T19:59:21.211Z,10.39
2022-09-18T20:01:47.977Z,10.38
2022-09-18T20:04:16.738Z,10.44
2022-09-18T20:06:44.326Z,10.51
2022-09-18T20:09:11.027Z,10.39
2022-09-18T20:11:37.714Z,10.34
2022-09-18T20:14:04.436Z,10.26
2022-09-18T20:16:31.641Z,10.20
2022-09-18T20:18:58.485Z,10.22
2022-09-18T20:21:25.212Z,10.20
2022-09-18T20:24:01.397Z,10.25
2022-09-18T20:26:29.047Z,10.24
2022-09-18T20:28:55.850Z,10.20
2022-09-18T20:31:24.018Z,10.03
2022-09-18T20:33:58.520Z,9.97
2022-09-18T20:36:26.812Z,10.23
2022-09-18T20:38:56.815Z,10.30
2022-09-18T20:41:28.354Z,10.31
2022-09-18T20:43:56.481Z,10.29
2022-09-18T20:46:24.989Z,10.33
2022-09-18T20:49:01.593Z,10.35
2022-09-18T20:51:35.000Z,10.36
2022-09-18T20:54:04.850Z,10.39
2022-09-18T20:56:38.137Z,10.45
2022-09-18T20:59:05.122Z,10.38
2022-09-18T21:01:35.690Z,10.14
2022-09-18T21:04:03.015Z,10.26
2022-09-18T21:06:32.413Z,10.37
2022-09-18T21:09:01.310Z,10.38
2022-09-18T21:11:31.055Z,10.45
2022-09-18T21:14:03.458Z,10.58
2022-09-18T21:16:33.283Z,10.52
2022-09-18T21:19:02.070Z,10.50
2022-09-18T21:21:31.911Z,10.43
2022-09-18T21:24:01.428Z,10.46
2022-09-18T21:26:28.245Z,10.18
2022-09-18T21:29:00.856Z,10.17
2022-09-18T21:31:31.327Z,10.20
2022-09-18T21:34:00.324Z,10.22
2022-09-18T21:36:27.477Z,10.41
2022-09-18T21:38:58.116Z,10.32
2022-09-18T21:41:25.666Z,10.29
2022-09-18T21:43:57.199Z,10.28
2022-09-18T21:46:24.365Z,10.33
2022-09-18T21:48:54.457Z,10.53
2022-09-18T21:51:21.347Z,10.56
2022-09-18T21:53:48.776Z,10.52
2022-09-18T21:56:20.278Z,10.59
2022-09-18T21:58:48.114Z,10.71
2022-09-18T22:01:23.448Z,10.74
2022-09-18T22:03:53.629Z,10.77
2022-09-18T22:06:38.950Z,10.82
2022-09-18T22:09:17.724Z,10.66
2022-09-18T22:11:45.501Z,10.48
2022-09-18T22:14:22.929Z,10.42
2022-09-18T22:16:50.191Z,10.10
2022-09-18T22:19:17.755Z,10.06
2022-09-18T22:21:47.017Z,10.01
2022-09-18T22:24:20.105Z,10.04
2022-09-18T22:26:54.869Z,10.08
2022-09-18T22:29:25.736Z,10.06
2022-09-18T22:31:53.308Z,10.11
2022-09-18T22:34:23.385Z,10.21
2022-09-18T22:36:51.082Z,10.22
2022-09-18T22:39:19.987Z,10.24
2022-09-18T22:41:47.135Z,10.06
2022-09-18T22:44:14.994Z,10.15
2022-09-18T22:46:43.394Z,10.31
2022-09-18T22:49:13.114Z,10.32
2022-09-18T22:51:40.647Z,10.35
2022-09-18T22:54:07.991Z,10.31
2022-09-18T22:56:47.660Z,10.33
2022-09-18T22:59:16.740Z,10.44
2022-09-18T23:01:49.114Z,10.43
2022-09-18T23:04:18.741Z,10.35
2022-09-18T23:06:47.890Z,10.35
2022-09-18T23:09:15.999Z,10.41
2022-09-18T23:11:44.844Z,10.26
2022-09-18T23:14:18.633Z,10.31
2022-09-18T23:16:46.445Z,10.17
2022-09-18T23:19:16.873Z,10.29
2022-09-18T23:21:44.007Z,10.19
2022-09-18T23:24:11.483Z,10.22
2022-09-18T23:26:42.932Z,10.22
2022-09-18T23:29:13.106Z,10.31
2022-09-18T23:31:42.150Z,10.29
2022-09-18T23:34:13.251Z,10.26
2022-09-18T23:36:43.217Z,10.31
2022-09-18T23:39:12.979Z,10.34
2022-09-18T23:41:40.599Z,10.42
2022-09-18T23:44:09.514Z,10.40
2022-09-18T23:46:36.747Z,10.40
2022-09-18T23:49:05.076Z,10.63
2022-09-18T23:51:35.677Z,10.65
2022-09-18T23:54:04.287Z,10.56
2022-09-18T23:56:33.588Z,10.53
2022-09-18T23:59:02.830Z,10.63
